Hlavní strana
METAR-TAF:

METAR-TAF

Letiště :

Illizi, Alžírsko

zeměpisná šířka: 26-30N, zeměpisná délka: 008-25E, výška: 558 m

Aktuální stav počasí

Zpráva byla vytvořena před 1 hodinou a 6 minutami, v 19:00 UTC
Severoseverovýchodní vítr 4 kt
Teplota 24°C
Vlhkost vzduchu 24%
Tlak 1021 hPa
Viditelnost 10 km a více
Skoro jasno ve výšce 4000 ft
Polojasno ve výšce 8000 ft

METAR: DAAP 251900Z 02004KT 9999 FEW040 SCT080 24/02 Q1021

Čas: 21:06 (20:06 UTC)

Předpověď počasí

Zpráva byla vytvořena před 3 hodinami a 6 minutami, v 17:00 UTC
Předpověď platná od 25 v 18 UTC do 26 v 03 UTC
Severní vítr 5 kt
Viditelnost 10 km a více
Skoro jasno ve výšce 4600 ft
Polojasno ve výšce 10000 ft

TAF: DAAP 251700Z 2518/2603 35005KT 9999 FEW046 SCT100

Stav a předpovědi počasí z více než 4 000 letišť (zprávy METAR a TAF).

Červené a žluté tečky na mapě představují dostupné meteorologické stanice.

Když kurzor umístíte na tečku, zobrazí se název stanice.

Pak kliknutím zobrazíte stav a předpověď počasí.

Chcete-li změnit mapu, kliknutím na zelené tlačítko se znaménkem +mapu přiblížíte, kliknutím na zelené tlačítko se znaménkem – mapu oddálíte a kliknutím na zelené šipky přejdete na sousední mapy.


METAR-TAF: